Big Bear Station Historical Data
Daily Summary for March 18, 2019 Units:  English    Metric   Both
Next Day »
Daily Weekly Monthly Yearly Custom
  High: Low: Average:
Temperature: 55.4 °F 25.9 °F 38.9 °F
Dew Point: 35.5 °F 24.4 °F 30.1 °F
Humidity: 96% 39% 75%
Wind Speed: 7.3mph 0.0mph 0.7mph
Wind Gust: -999.0mph - -
Wind- - West
Pressure: 23.55 in 23.48 in -
Precipitation: 0.00 in    
Historical Graphs
 
 
Tabular Data for March 18, 2019
Time Temperature Dew Point Pressure Wind Wind Speed Wind Gust Humidity Rainfall Rate (Hourly)
00:01 30.4 °F 27.3 °F 23.55 in Calm   -999.0 mph 88% 0.00 in
00:16 30.4 °F 27.3 °F 23.55 in Calm   -999.0 mph 88% 0.00 in
00:32 29.8 °F 27.0 °F 23.55 in Calm   -999.0 mph 89% 0.00 in
00:47 30.0 °F 27.4 °F 23.55 in Calm   -999.0 mph 90% 0.00 in
01:02 29.7 °F 27.1 °F 23.54 in Calm   -999.0 mph 90% 0.00 in
01:17 29.3 °F 27.0 °F 23.54 in Calm   -999.0 mph 91% 0.00 in
01:32 29.1 °F 26.8 °F 23.54 in Calm   -999.0 mph 91% 0.00 in
01:48 28.8 °F 26.8 °F 23.54 in Calm   -999.0 mph 92% 0.00 in
02:03 28.8 °F 26.8 °F 23.54 in Calm   -999.0 mph 92% 0.00 in
02:18 28.6 °F 26.6 °F 23.54 in Calm   -999.0 mph 92% 0.00 in
02:33 28.2 °F 26.2 °F 23.53 in Calm   -999.0 mph 92% 0.00 in
02:49 28.0 °F 26.2 °F 23.53 in Calm   -999.0 mph 93% 0.00 in
03:04 27.9 °F 26.1 °F 23.52 in Calm   -999.0 mph 93% 0.00 in
03:19 27.5 °F 26.0 °F 23.51 in Calm   -999.0 mph 94% 0.00 in
03:35 27.5 °F 26.3 °F 23.51 in Calm   -999.0 mph 95% 0.00 in
03:50 27.1 °F 25.9 °F 23.51 in Calm   -999.0 mph 95% 0.00 in
04:05 27.3 °F 26.3 °F 23.50 in Calm   -999.0 mph 96% 0.00 in
04:20 26.8 °F 25.8 °F 23.50 in Calm   -999.0 mph 96% 0.00 in
04:36 27.0 °F 26.0 °F 23.50 in Calm   -999.0 mph 96% 0.00 in
04:51 27.0 °F 26.0 °F 23.50 in Calm   -999.0 mph 96% 0.00 in
05:06 26.8 °F 25.8 °F 23.50 in Calm   -999.0 mph 96% 0.00 in
05:21 26.4 °F 25.4 °F 23.50 in Calm   -999.0 mph 96% 0.00 in
05:36 26.6 °F 25.6 °F 23.51 in Calm   -999.0 mph 96% 0.00 in
05:52 26.2 °F 25.2 °F 23.50 in Calm   -999.0 mph 96% 0.00 in
06:07 26.4 °F 25.4 °F 23.51 in Calm   -999.0 mph 96% 0.00 in
06:23 26.2 °F 25.2 °F 23.51 in Calm   -999.0 mph 96% 0.00 in
06:38 26.1 °F 25.1 °F 23.51 in Calm   -999.0 mph 96% 0.00 in
06:53 26.2 °F 25.0 °F 23.52 in Calm   -999.0 mph 95% 0.00 in
07:08 25.9 °F 24.7 °F 23.52 in Calm   -999.0 mph 95% 0.00 in
07:23 26.2 °F 24.5 °F 23.52 in Calm   -999.0 mph 93% 0.00 in
07:39 25.9 °F 24.4 °F 23.52 in Calm   -999.0 mph 94% 0.00 in
07:54 26.4 °F 24.7 °F 23.53 in Calm   -999.0 mph 93% 0.00 in
08:09 27.7 °F 26.5 °F 23.53 in Calm   -999.0 mph 95% 0.00 in
08:25 29.5 °F 27.7 °F 23.53 in Calm   -999.0 mph 93% 0.00 in
08:40 30.2 °F 28.4 °F 23.53 in Calm   -999.0 mph 93% 0.00 in
08:55 30.4 °F 27.8 °F 23.53 in Calm   -999.0 mph 90% 0.00 in
09:11 31.1 °F 28.8 °F 23.53 in Calm   -999.0 mph 91% 0.00 in
09:26 32.0 °F 29.7 °F 23.53 in Calm   -999.0 mph 91% 0.00 in
09:41 33.8 °F 31.2 °F 23.53 in Calm   -999.0 mph 90% 0.00 in
09:56 36.0 °F 32.5 °F 23.53 in Calm   -999.0 mph 87% 0.00 in
10:11 38.5 °F 30.9 °F 23.53 in WNW 1.1 mph -999.0 mph 74% 0.00 in
10:27 41.4 °F 26.0 °F 23.53 in Calm   -999.0 mph 54% 0.00 in
10:42 44.4 °F 33.4 °F 23.53 in Calm   -999.0 mph 65% 0.00 in
10:57 48.6 °F 28.7 °F 23.53 in Calm   -999.0 mph 46% 0.00 in
11:12 51.1 °F 27.6 °F 23.53 in NW 3.2 mph -999.0 mph 40% 0.00 in
11:27 51.8 °F 27.6 °F 23.53 in Calm   -999.0 mph 39% 0.00 in
11:43 52.2 °F 28.0 °F 23.52 in NW 4.2 mph -999.0 mph 39% 0.00 in
11:58 52.3 °F 28.7 °F 23.52 in NNW 3.7 mph -999.0 mph 40% 0.00 in
12:14 54.7 °F 30.2 °F 23.53 in Calm   -999.0 mph 39% 0.00 in
12:29 55.4 °F 32.1 °F 23.52 in NNW 3.7 mph -999.0 mph 41% 0.00 in
12:44 53.8 °F 32.9 °F 23.52 in NW 4.2 mph -999.0 mph 45% 0.00 in
13:00 54.5 °F 31.9 °F 23.52 in Calm   -999.0 mph 42% 0.00 in
13:15 54.5 °F 31.3 °F 23.51 in NE 2.2 mph -999.0 mph 41% 0.00 in
13:31 54.5 °F 32.5 °F 23.51 in NW 2.7 mph -999.0 mph 43% 0.00 in
13:46 54.7 °F 33.2 °F 23.51 in SSE 3.2 mph -999.0 mph 44% 0.00 in
14:01 54.3 °F 32.3 °F 23.51 in NNE 2.2 mph -999.0 mph 43% 0.00 in
14:17 54.9 °F 33.4 °F 23.50 in West 2.2 mph -999.0 mph 44% 0.00 in
14:32 54.3 °F 34.5 °F 23.50 in NW 5.3 mph -999.0 mph 47% 0.00 in
14:47 55.2 °F 34.2 °F 23.50 in West 4.7 mph -999.0 mph 45% 0.00 in
15:02 54.0 °F 33.7 °F 23.49 in WNW 3.7 mph -999.0 mph 46% 0.00 in
15:18 54.9 °F 34.5 °F 23.49 in WNW 5.8 mph -999.0 mph 46% 0.00 in
15:33 54.5 °F 34.1 °F 23.49 in WNW 7.3 mph -999.0 mph 46% 0.00 in
15:48 54.3 °F 34.5 °F 23.49 in Calm   -999.0 mph 47% 0.00 in
16:04 54.5 °F 34.1 °F 23.49 in Calm   -999.0 mph 46% 0.00 in
16:19 54.9 °F 35.0 °F 23.49 in Calm   -999.0 mph 47% 0.00 in
16:34 52.0 °F 33.4 °F 23.49 in Calm   -999.0 mph 49% 0.00 in
16:49 52.5 °F 33.9 °F 23.49 in North 6.8 mph -999.0 mph 49% 0.00 in
17:04 52.9 °F 33.7 °F 23.48 in Calm   -999.0 mph 48% 0.00 in
17:20 52.2 °F 34.1 °F 23.49 in Calm   -999.0 mph 50% 0.00 in
17:35 51.6 °F 33.6 °F 23.49 in Calm   -999.0 mph 50% 0.00 in
17:50 50.9 °F 33.9 °F 23.49 in Calm   -999.0 mph 52% 0.00 in
18:05 50.0 °F 34.0 °F 23.49 in Calm   -999.0 mph 54% 0.00 in
18:21 48.6 °F 34.5 °F 23.49 in Calm   -999.0 mph 58% 0.00 in
18:36 47.5 °F 34.7 °F 23.49 in Calm   -999.0 mph 61% 0.00 in
18:51 46.2 °F 35.5 °F 23.49 in Calm   -999.0 mph 66% 0.00 in
19:06 45.1 °F 35.2 °F 23.50 in Calm   -999.0 mph 68% 0.00 in
19:21 43.9 °F 35.1 °F 23.50 in Calm   -999.0 mph 71% 0.00 in
19:37 42.8 °F 35.1 °F 23.50 in Calm   -999.0 mph 74% 0.00 in
19:52 41.7 °F 35.0 °F 23.50 in Calm   -999.0 mph 77% 0.00 in
20:07 40.8 °F 34.1 °F 23.50 in Calm   -999.0 mph 77% 0.00 in
20:22 39.7 °F 34.0 °F 23.51 in Calm   -999.0 mph 80% 0.00 in
20:37 38.7 °F 33.7 °F 23.51 in Calm   -999.0 mph 82% 0.00 in
20:53 38.1 °F 33.4 °F 23.51 in Calm   -999.0 mph 83% 0.00 in
21:08 37.2 °F 32.8 °F 23.51 in Calm   -999.0 mph 84% 0.00 in
21:23 36.5 °F 32.7 °F 23.51 in Calm   -999.0 mph 86% 0.00 in
21:38 35.8 °F 32.0 °F 23.52 in Calm   -999.0 mph 86% 0.00 in
21:53 35.6 °F 32.1 °F 23.52 in Calm   -999.0 mph 87% 0.00 in
22:09 35.1 °F 31.9 °F 23.52 in Calm   -999.0 mph 88% 0.00 in
22:24 34.5 °F 31.6 °F 23.52 in Calm   -999.0 mph 89% 0.00 in
22:39 34.0 °F 31.4 °F 23.53 in Calm   -999.0 mph 90% 0.00 in
22:54 34.0 °F 31.7 °F 23.52 in Calm   -999.0 mph 91% 0.00 in
23:09 33.6 °F 31.3 °F 23.53 in Calm   -999.0 mph 91% 0.00 in
23:25 33.3 °F 31.2 °F 23.53 in Calm   -999.0 mph 92% 0.00 in
23:40 32.9 °F 30.8 °F 23.52 in Calm   -999.0 mph 92% 0.00 in
23:55 32.5 °F 30.4 °F 23.52 in Calm   -999.0 mph 92% 0.00 in
Big Bear CA Weather